createdAt,value
2022-12-15T00:00:36.003Z,996.8
2022-12-15T00:01:39.181Z,996.8
2022-12-15T00:02:43.153Z,996.7
2022-12-15T00:03:46.729Z,996.7
2022-12-15T00:04:50.010Z,996.7
2022-12-15T00:05:53.335Z,996.8
2022-12-15T00:06:56.558Z,996.8
2022-12-15T00:07:59.706Z,996.8
2022-12-15T00:09:02.801Z,996.9
2022-12-15T00:10:06.212Z,996.9
2022-12-15T00:11:09.041Z,996.9
2022-12-15T00:12:12.630Z,996.9
2022-12-15T00:13:15.666Z,996.9
2022-12-15T00:14:18.787Z,997
2022-12-15T00:15:21.423Z,997
2022-12-15T00:16:24.332Z,997
2022-12-15T00:17:28.188Z,997
2022-12-15T00:18:30.479Z,997
2022-12-15T00:19:33.733Z,997
2022-12-15T00:20:36.509Z,997
2022-12-15T00:21:39.353Z,997
2022-12-15T00:22:42.122Z,997
2022-12-15T00:23:45.184Z,997
2022-12-15T00:24:50.402Z,997
2022-12-15T00:25:53.560Z,996.9
2022-12-15T00:26:56.420Z,997
2022-12-15T00:27:59.105Z,997
2022-12-15T00:29:02.820Z,997
2022-12-15T00:30:05.819Z,996.9
2022-12-15T00:31:08.701Z,996.9
2022-12-15T00:32:12.368Z,996.9
2022-12-15T00:33:15.147Z,996.9
2022-12-15T00:34:18.018Z,996.9
2022-12-15T00:35:20.441Z,996.9
2022-12-15T00:36:22.866Z,996.9
2022-12-15T00:37:25.717Z,996.9
2022-12-15T00:38:28.713Z,996.9
2022-12-15T00:39:31.487Z,996.9
2022-12-15T00:40:34.951Z,996.9
2022-12-15T00:41:38.294Z,996.9
2022-12-15T00:42:41.799Z,997
2022-12-15T00:43:45.134Z,997
2022-12-15T00:44:48.367Z,996.9
2022-12-15T00:45:51.421Z,996.9
2022-12-15T00:46:54.281Z,996.9
2022-12-15T00:47:57.393Z,996.9
2022-12-15T00:49:01.108Z,996.8
2022-12-15T00:50:04.622Z,996.8
2022-12-15T00:51:07.483Z,996.8
2022-12-15T00:52:10.291Z,996.8
2022-12-15T00:53:13.343Z,996.8
2022-12-15T00:54:18.464Z,996.7
2022-12-15T00:55:21.681Z,996.8
2022-12-15T00:56:25.157Z,996.8
2022-12-15T00:57:28.602Z,996.7
2022-12-15T00:58:31.676Z,996.7
2022-12-15T00:59:34.468Z,996.7
2022-12-15T01:00:37.523Z,996.7
2022-12-15T01:01:40.959Z,996.7
2022-12-15T01:02:44.528Z,996.7
2022-12-15T01:03:48.711Z,996.7
2022-12-15T01:04:51.886Z,996.7
2022-12-15T01:05:54.378Z,996.7
2022-12-15T01:06:57.499Z,996.6
2022-12-15T01:08:00.616Z,996.6
2022-12-15T01:09:03.092Z,996.6
2022-12-15T01:10:06.587Z,996.6
2022-12-15T01:11:09.919Z,996.7
2022-12-15T01:12:12.573Z,996.7
2022-12-15T01:13:16.055Z,996.7
2022-12-15T01:14:19.376Z,996.7
2022-12-15T01:15:22.177Z,996.7
2022-12-15T01:16:25.269Z,996.7
2022-12-15T01:17:28.461Z,996.8
2022-12-15T01:18:32.140Z,996.7
2022-12-15T01:19:34.915Z,996.7
2022-12-15T01:20:38.527Z,996.8
2022-12-15T01:21:40.678Z,996.8
2022-12-15T01:22:43.376Z,996.8
2022-12-15T01:23:46.351Z,996.8
2022-12-15T01:24:49.400Z,996.7
2022-12-15T01:25:52.650Z,996.8
2022-12-15T01:26:55.440Z,996.7
2022-12-15T01:27:58.839Z,996.8
2022-12-15T01:29:02.266Z,996.7
2022-12-15T01:30:05.680Z,996.7
2022-12-15T01:31:08.560Z,996.7
2022-12-15T01:32:11.735Z,996.7
2022-12-15T01:33:14.241Z,996.6
2022-12-15T01:34:16.822Z,996.6
2022-12-15T01:35:20.419Z,996.6
2022-12-15T01:36:23.739Z,996.7
2022-12-15T01:37:25.884Z,996.7
2022-12-15T01:38:28.429Z,996.6
2022-12-15T01:39:31.465Z,996.6
2022-12-15T01:40:34.164Z,996.6
2022-12-15T01:41:36.579Z,996.6
2022-12-15T01:42:39.352Z,996.6
2022-12-15T01:43:42.026Z,996.6
2022-12-15T01:44:45.758Z,996.6
2022-12-15T01:45:49.163Z,996.6
2022-12-15T01:46:51.899Z,996.5
2022-12-15T01:47:55.760Z,996.6
2022-12-15T01:48:58.916Z,996.7
2022-12-15T01:50:01.503Z,996.8
2022-12-15T01:51:04.655Z,996.7
2022-12-15T01:52:07.159Z,996.7
2022-12-15T01:53:09.972Z,996.7
2022-12-15T01:54:12.963Z,996.7
2022-12-15T01:55:15.468Z,996.8
2022-12-15T01:56:18.171Z,996.8
2022-12-15T01:57:21.235Z,996.8
2022-12-15T01:58:24.471Z,996.8
2022-12-15T01:59:27.342Z,996.8
2022-12-15T02:00:30.531Z,996.8
2022-12-15T02:01:34.382Z,996.8
2022-12-15T02:02:41.160Z,996.9
2022-12-15T02:03:44.778Z,996.9
2022-12-15T02:04:48.479Z,996.9
2022-12-15T02:05:51.242Z,996.9
2022-12-15T02:06:54.343Z,996.9
2022-12-15T02:07:57.388Z,996.9
2022-12-15T02:09:00.512Z,996.9
2022-12-15T02:10:02.851Z,996.9
2022-12-15T02:11:05.343Z,997
2022-12-15T02:12:08.950Z,997
2022-12-15T02:13:10.970Z,996.9
2022-12-15T02:14:13.826Z,997
2022-12-15T02:15:17.519Z,996.9
2022-12-15T02:16:20.974Z,996.9
2022-12-15T02:17:24.946Z,996.9
2022-12-15T02:18:28.114Z,996.9
2022-12-15T02:19:30.881Z,996.9
2022-12-15T02:20:33.097Z,996.9
2022-12-15T02:21:35.620Z,996.9
2022-12-15T02:22:38.746Z,997
2022-12-15T02:23:42.006Z,997
2022-12-15T02:24:50.125Z,997
2022-12-15T02:25:52.927Z,996.9
2022-12-15T02:26:56.307Z,996.9
2022-12-15T02:27:59.234Z,996.8
2022-12-15T02:29:02.405Z,996.8
2022-12-15T02:30:06.021Z,996.8
2022-12-15T02:31:09.578Z,996.8
2022-12-15T02:32:13.608Z,996.8
2022-12-15T02:33:16.802Z,996.7
2022-12-15T02:34:19.514Z,996.7
2022-12-15T02:35:22.862Z,996.7
2022-12-15T02:36:25.730Z,996.6
2022-12-15T02:37:28.697Z,996.6
2022-12-15T02:38:31.409Z,996.6
2022-12-15T02:39:34.489Z,996.7
2022-12-15T02:40:37.459Z,996.7
2022-12-15T02:41:40.224Z,996.7
2022-12-15T02:42:42.919Z,996.7
2022-12-15T02:43:45.226Z,996.6
2022-12-15T02:44:53.001Z,996.7
2022-12-15T02:45:56.515Z,996.8
2022-12-15T02:47:00.181Z,996.8
2022-12-15T02:48:03.646Z,996.8
2022-12-15T02:49:07.507Z,996.7
2022-12-15T02:50:10.650Z,996.7
2022-12-15T02:51:13.701Z,996.7
2022-12-15T02:52:16.734Z,996.7
2022-12-15T02:53:19.425Z,996.6
2022-12-15T02:54:22.436Z,996.6
2022-12-15T02:55:25.572Z,996.7
2022-12-15T02:56:28.624Z,996.6
2022-12-15T02:57:31.754Z,996.7
2022-12-15T02:58:34.006Z,996.7
2022-12-15T02:59:36.863Z,996.7
2022-12-15T03:00:40.049Z,996.7
2022-12-15T03:01:44.752Z,996.7
2022-12-15T03:02:52.709Z,996.7
2022-12-15T03:03:57.384Z,996.6
2022-12-15T03:05:01.024Z,996.6
2022-12-15T03:06:04.452Z,996.6
2022-12-15T03:07:07.504Z,996.6
2022-12-15T03:08:10.197Z,996.6
2022-12-15T03:09:12.613Z,996.6
2022-12-15T03:10:15.662Z,996.6
2022-12-15T03:11:18.364Z,996.6
2022-12-15T03:12:21.423Z,996.6
2022-12-15T03:13:24.571Z,996.6
2022-12-15T03:14:27.725Z,996.6
2022-12-15T03:15:35.975Z,996.7
2022-12-15T03:16:38.598Z,996.7
2022-12-15T03:17:41.915Z,996.8
2022-12-15T03:18:44.751Z,996.8
2022-12-15T03:19:50.280Z,996.9
2022-12-15T03:20:53.850Z,997
2022-12-15T03:21:56.899Z,997
2022-12-15T03:22:59.754Z,997
2022-12-15T03:24:02.753Z,997
2022-12-15T03:25:05.882Z,997
2022-12-15T03:26:08.935Z,997
2022-12-15T03:27:12.020Z,997
2022-12-15T03:28:14.168Z,997
2022-12-15T03:29:17.224Z,997.1
2022-12-15T03:30:20.264Z,997
2022-12-15T03:31:23.635Z,997
2022-12-15T03:32:27.203Z,996.9
2022-12-15T03:33:30.949Z,996.9
2022-12-15T03:34:36.590Z,996.9
2022-12-15T03:35:39.763Z,996.8
2022-12-15T03:36:42.894Z,996.8
2022-12-15T03:37:50.118Z,996.9
2022-12-15T03:38:53.130Z,997
2022-12-15T03:39:56.104Z,997
2022-12-15T03:40:59.468Z,997
2022-12-15T03:42:02.464Z,997
2022-12-15T03:43:04.617Z,997.1
2022-12-15T03:44:07.655Z,997.2
2022-12-15T03:45:10.342Z,997.3
2022-12-15T03:46:13.625Z,997.3
2022-12-15T03:47:16.784Z,997.3
2022-12-15T03:48:19.563Z,997.3
2022-12-15T03:49:22.275Z,997.3
2022-12-15T03:50:24.914Z,997.2
2022-12-15T03:51:28.373Z,997.1
2022-12-15T03:52:31.689Z,997.2
2022-12-15T03:53:34.422Z,997.2
2022-12-15T03:54:37.421Z,997.1
2022-12-15T03:55:40.207Z,997.1
2022-12-15T03:56:43.210Z,997
2022-12-15T03:57:45.985Z,997
2022-12-15T03:58:48.571Z,997
2022-12-15T03:59:51.637Z,997.2
2022-12-15T04:00:54.191Z,997.2
2022-12-15T04:01:57.557Z,997.1
2022-12-15T04:03:01.557Z,997.1
2022-12-15T04:04:05.642Z,997.1
2022-12-15T04:05:08.573Z,997.1
2022-12-15T04:06:11.786Z,997.2
2022-12-15T04:07:15.058Z,997.2
2022-12-15T04:08:18.063Z,997.2
2022-12-15T04:09:21.119Z,997.2
2022-12-15T04:10:33.492Z,997.2
2022-12-15T04:11:37.453Z,997.2
2022-12-15T04:12:39.946Z,997.2
2022-12-15T04:13:42.089Z,997.2
2022-12-15T04:14:44.869Z,997.2
2022-12-15T04:15:51.122Z,997.2
2022-12-15T04:16:54.045Z,997.2
2022-12-15T04:17:57.133Z,997.2
2022-12-15T04:19:00.205Z,997.2
2022-12-15T04:20:02.991Z,997.2
2022-12-15T04:21:06.356Z,997.3
2022-12-15T04:22:18.021Z,997.3
2022-12-15T04:23:22.011Z,997.2
2022-12-15T04:24:25.073Z,997.3
2022-12-15T04:25:27.971Z,997.3
2022-12-15T04:26:30.544Z,997.3
2022-12-15T04:27:33.319Z,997.3
2022-12-15T04:28:36.358Z,997.2
2022-12-15T04:29:39.151Z,997.3
2022-12-15T04:30:42.369Z,997.3
2022-12-15T04:31:45.604Z,997.3
2022-12-15T04:32:50.373Z,997.3
2022-12-15T04:33:52.529Z,997.3
2022-12-15T04:34:56.182Z,997.3
2022-12-15T04:35:59.065Z,997.3
2022-12-15T04:37:02.038Z,997.3
2022-12-15T04:38:04.943Z,997.3
2022-12-15T04:39:08.672Z,997.5
2022-12-15T04:40:11.714Z,997.5
2022-12-15T04:41:14.965Z,997.5
2022-12-15T04:42:17.932Z,997.5
2022-12-15T04:43:21.363Z,997.5
2022-12-15T04:44:24.157Z,997.5
2022-12-15T04:45:27.218Z,997.5
2022-12-15T04:46:30.432Z,997.4
2022-12-15T04:47:33.663Z,997.4
2022-12-15T04:48:36.090Z,997.4
2022-12-15T04:49:38.589Z,997.5
2022-12-15T04:50:41.747Z,997.4
2022-12-15T04:51:44.536Z,997.5
2022-12-15T04:52:47.694Z,997.5
2022-12-15T04:53:51.147Z,997.5
2022-12-15T04:54:55.135Z,997.5
2022-12-15T04:55:57.913Z,997.5
2022-12-15T04:57:00.964Z,997.5
2022-12-15T04:58:03.180Z,997.5
2022-12-15T04:59:05.114Z,997.5
2022-12-15T05:00:07.688Z,997.5
2022-12-15T05:01:10.663Z,997.5
2022-12-15T05:02:14.421Z,997.5
2022-12-15T05:03:18.933Z,997.5
2022-12-15T05:04:22.009Z,997.5
2022-12-15T05:05:25.551Z,997.6
2022-12-15T05:06:27.693Z,997.5
2022-12-15T05:07:30.748Z,997.6
2022-12-15T05:08:33.243Z,997.6
2022-12-15T05:09:36.976Z,997.5
2022-12-15T05:10:40.694Z,997.5
2022-12-15T05:11:43.466Z,997.5
2022-12-15T05:12:47.165Z,997.5
2022-12-15T05:13:50.215Z,997.5
2022-12-15T05:14:52.708Z,997.6
2022-12-15T05:15:55.675Z,997.6
2022-12-15T05:16:59.148Z,997.7
2022-12-15T05:18:02.477Z,997.6
2022-12-15T05:19:04.897Z,997.7
2022-12-15T05:20:07.318Z,997.6
2022-12-15T05:21:10.404Z,997.7
2022-12-15T05:22:14.051Z,997.6
2022-12-15T05:23:17.136Z,997.6
2022-12-15T05:24:20.284Z,997.6
2022-12-15T05:25:23.399Z,997.6
2022-12-15T05:26:27.207Z,997.6
2022-12-15T05:27:29.905Z,997.6
2022-12-15T05:28:32.130Z,997.6
2022-12-15T05:29:35.575Z,997.6
2022-12-15T05:30:38.363Z,997.6
2022-12-15T05:31:41.782Z,997.6
2022-12-15T05:32:44.755Z,997.6
2022-12-15T05:33:51.837Z,997.6
2022-12-15T05:34:54.682Z,997.6
2022-12-15T05:35:57.661Z,997.6
2022-12-15T05:37:00.709Z,997.6
2022-12-15T05:38:03.543Z,997.6
2022-12-15T05:39:05.680Z,997.7
2022-12-15T05:40:08.732Z,997.6
2022-12-15T05:41:11.914Z,997.6
2022-12-15T05:42:15.752Z,997.7
2022-12-15T05:43:26.893Z,997.7
2022-12-15T05:44:32.562Z,997.7
2022-12-15T05:45:35.827Z,997.7
2022-12-15T05:46:38.387Z,997.7
2022-12-15T05:47:42.002Z,997.7
2022-12-15T05:48:45.317Z,997.7
2022-12-15T05:49:48.635Z,997.7
2022-12-15T05:50:51.408Z,997.7
2022-12-15T05:51:54.658Z,997.7
2022-12-15T05:52:57.572Z,997.8
2022-12-15T05:54:00.265Z,997.8
2022-12-15T05:55:03.248Z,997.8
2022-12-15T05:56:06.034Z,997.8
2022-12-15T05:57:09.781Z,997.8
2022-12-15T05:58:13.652Z,997.8
2022-12-15T05:59:16.430Z,997.8
2022-12-15T06:00:19.203Z,997.8
2022-12-15T06:01:22.081Z,997.8
2022-12-15T06:02:25.216Z,997.8
2022-12-15T06:03:29.387Z,997.7
2022-12-15T06:04:34.832Z,997.7
2022-12-15T06:05:38.391Z,997.7
2022-12-15T06:06:41.834Z,997.7
2022-12-15T06:07:44.428Z,997.7
2022-12-15T06:08:50.336Z,997.7
2022-12-15T06:09:53.091Z,997.8
2022-12-15T06:10:57.153Z,997.8
2022-12-15T06:12:00.291Z,997.8
2022-12-15T06:13:03.120Z,997.8
2022-12-15T06:14:06.846Z,997.9
2022-12-15T06:15:09.866Z,997.9
2022-12-15T06:16:13.500Z,997.9
2022-12-15T06:17:16.640Z,997.9
2022-12-15T06:18:19.099Z,997.9
2022-12-15T06:19:21.871Z,997.9
2022-12-15T06:20:25.270Z,998
2022-12-15T06:21:28.438Z,997.9
2022-12-15T06:22:31.246Z,998
2022-12-15T06:23:34.633Z,998
2022-12-15T06:24:37.647Z,998.1
2022-12-15T06:25:40.697Z,998.2
2022-12-15T06:26:43.403Z,998.2
2022-12-15T06:27:46.173Z,998.2
2022-12-15T06:28:50.193Z,998.2
2022-12-15T06:29:53.996Z,998.2
2022-12-15T06:30:57.135Z,998.2
2022-12-15T06:32:00.130Z,998.1
2022-12-15T06:33:03.635Z,998.2
2022-12-15T06:34:06.993Z,998.1
2022-12-15T06:35:10.401Z,998.3
2022-12-15T06:36:13.113Z,998.3
2022-12-15T06:37:16.167Z,998.3
2022-12-15T06:38:18.599Z,998.3
2022-12-15T06:39:21.654Z,998.3
2022-12-15T06:40:24.078Z,998.3
2022-12-15T06:41:26.775Z,998.3
2022-12-15T06:42:29.299Z,998.2
2022-12-15T06:43:33.257Z,998.3
2022-12-15T06:44:37.916Z,998.2
2022-12-15T06:45:42.061Z,998.2
2022-12-15T06:46:51.287Z,998.2
2022-12-15T06:48:01.939Z,998.2
2022-12-15T06:49:05.323Z,998.2
2022-12-15T06:50:08.018Z,998.3
2022-12-15T06:51:17.665Z,998.3
2022-12-15T06:52:19.893Z,998.4
2022-12-15T06:53:23.254Z,998.5
2022-12-15T06:54:26.022Z,998.5
2022-12-15T06:55:29.104Z,998.4
2022-12-15T06:56:34.976Z,998.4
2022-12-15T06:57:38.360Z,998.4
2022-12-15T06:58:41.756Z,998.3
2022-12-15T06:59:44.935Z,998.3
2022-12-15T07:00:48.721Z,998.3
2022-12-15T07:01:51.591Z,998.4
2022-12-15T07:02:55.379Z,998.4
2022-12-15T07:04:00.189Z,998.5
2022-12-15T07:05:05.711Z,998.4
2022-12-15T07:06:08.444Z,998.4
2022-12-15T07:07:11.285Z,998.5
2022-12-15T07:08:14.428Z,998.5
2022-12-15T07:09:17.516Z,998.5
2022-12-15T07:10:20.300Z,998.5
2022-12-15T07:11:23.351Z,998.5
2022-12-15T07:12:27.009Z,998.5
2022-12-15T07:13:30.938Z,998.5
2022-12-15T07:14:36.359Z,998.6
2022-12-15T07:15:39.762Z,998.6
2022-12-15T07:16:44.455Z,998.6
2022-12-15T07:17:47.416Z,998.6
2022-12-15T07:18:50.384Z,998.7
2022-12-15T07:19:53.179Z,998.7
2022-12-15T07:20:55.388Z,998.7
2022-12-15T07:21:58.097Z,998.7
2022-12-15T07:23:00.956Z,998.7
2022-12-15T07:24:04.661Z,998.7
2022-12-15T07:25:10.487Z,998.7
2022-12-15T07:26:13.546Z,998.7
2022-12-15T07:27:15.771Z,998.8
2022-12-15T07:28:28.393Z,998.8
2022-12-15T07:29:33.800Z,998.9
2022-12-15T07:30:39.318Z,998.9
2022-12-15T07:31:43.246Z,999
2022-12-15T07:32:50.789Z,999
2022-12-15T07:33:53.638Z,998.9
2022-12-15T07:34:56.962Z,999
2022-12-15T07:35:59.443Z,999
2022-12-15T07:37:02.847Z,999
2022-12-15T07:38:05.742Z,999
2022-12-15T07:39:09.125Z,999
2022-12-15T07:40:12.123Z,999
2022-12-15T07:41:15.101Z,999
2022-12-15T07:42:17.871Z,999
2022-12-15T07:43:20.660Z,999
2022-12-15T07:44:23.529Z,999
2022-12-15T07:45:26.130Z,999
2022-12-15T07:46:29.953Z,999
2022-12-15T07:47:34.425Z,999.1
2022-12-15T07:48:38.209Z,999.1
2022-12-15T07:49:41.645Z,999.1
2022-12-15T07:50:44.982Z,999.1
2022-12-15T07:51:52.409Z,999.2
2022-12-15T07:52:55.549Z,999.1
2022-12-15T07:53:58.886Z,999.1
2022-12-15T07:55:01.939Z,999.1
2022-12-15T07:56:10.010Z,999.1
2022-12-15T07:57:12.987Z,999.1
2022-12-15T07:58:15.480Z,999.2
2022-12-15T07:59:18.532Z,999.2
2022-12-15T08:00:21.524Z,999.2
2022-12-15T08:01:24.645Z,999.2
2022-12-15T08:02:28.735Z,999.3
2022-12-15T08:03:34.863Z,999.3
2022-12-15T08:04:43.508Z,999.3
2022-12-15T08:05:46.283Z,999.3
2022-12-15T08:06:49.988Z,999.4
2022-12-15T08:07:53.411Z,999.5
2022-12-15T08:08:56.294Z,999.5
2022-12-15T08:09:58.861Z,999.5
2022-12-15T08:11:02.565Z,999.6
2022-12-15T08:12:05.702Z,999.6
2022-12-15T08:13:08.625Z,999.6
2022-12-15T08:14:18.508Z,999.6
2022-12-15T08:15:23.831Z,999.5
2022-12-15T08:16:27.184Z,999.5
2022-12-15T08:17:31.053Z,999.4
2022-12-15T08:18:34.100Z,999.5
2022-12-15T08:19:38.147Z,999.4
2022-12-15T08:20:42.125Z,999.5
2022-12-15T08:21:44.624Z,999.5
2022-12-15T08:22:47.748Z,999.5
2022-12-15T08:23:51.072Z,999.5
2022-12-15T08:24:54.541Z,999.5
2022-12-15T08:25:57.597Z,999.5
2022-12-15T08:27:00.741Z,999.6
2022-12-15T08:28:03.245Z,999.6
2022-12-15T08:29:52.515Z,999.6
2022-12-15T08:30:55.767Z,999.6
2022-12-15T08:31:59.022Z,999.7
2022-12-15T08:33:02.895Z,999.7
2022-12-15T08:34:06.021Z,999.7
2022-12-15T08:35:54.949Z,999.7
2022-12-15T08:37:01.065Z,999.7
2022-12-15T08:38:06.180Z,999.7
2022-12-15T08:39:09.310Z,999.7
2022-12-15T08:40:13.314Z,999.7
2022-12-15T08:41:16.082Z,999.7
2022-12-15T08:42:18.580Z,999.7
2022-12-15T08:43:21.442Z,999.7
2022-12-15T08:44:24.775Z,999.7
2022-12-15T08:45:27.574Z,999.7
2022-12-15T08:46:30.680Z,999.7
2022-12-15T08:47:34.403Z,999.7
2022-12-15T08:48:37.533Z,999.7
2022-12-15T08:49:40.947Z,999.7
2022-12-15T08:50:44.037Z,999.7
2022-12-15T08:51:50.583Z,999.7
2022-12-15T08:53:31.819Z,999.6
2022-12-15T08:54:34.995Z,999.7
2022-12-15T08:55:37.703Z,999.7
2022-12-15T08:56:40.402Z,999.6
2022-12-15T08:57:43.197Z,999.7
2022-12-15T08:58:46.769Z,999.7
2022-12-15T08:59:49.893Z,999.7
2022-12-15T09:00:53.545Z,999.7
2022-12-15T09:01:57.385Z,999.7
2022-12-15T09:03:00.804Z,999.7
2022-12-15T09:04:04.184Z,999.7
2022-12-15T09:05:07.212Z,999.8
2022-12-15T09:06:10.924Z,999.8
2022-12-15T09:07:14.936Z,999.8
2022-12-15T09:08:18.913Z,999.8
2022-12-15T09:09:22.361Z,999.8
2022-12-15T09:10:26.002Z,999.8
2022-12-15T09:11:28.870Z,999.8
2022-12-15T09:12:32.315Z,999.7
2022-12-15T09:13:36.567Z,999.7
2022-12-15T09:14:39.360Z,999.7
2022-12-15T09:16:10.580Z,999.7
2022-12-15T09:17:15.533Z,999.7
2022-12-15T09:18:18.933Z,999.7
2022-12-15T09:19:22.257Z,999.7
2022-12-15T09:20:25.695Z,999.7
2022-12-15T09:21:29.169Z,999.7
2022-12-15T09:22:32.883Z,999.7
2022-12-15T09:23:37.578Z,999.7
2022-12-15T09:24:40.638Z,999.7
2022-12-15T09:25:43.680Z,999.7
2022-12-15T09:26:46.444Z,999.7
2022-12-15T09:27:49.200Z,999.7
2022-12-15T09:28:52.617Z,999.8
2022-12-15T09:29:56.233Z,999.7
2022-12-15T09:30:59.170Z,999.8
2022-12-15T09:32:02.615Z,999.8
2022-12-15T09:33:16.539Z,999.8
2022-12-15T09:34:19.875Z,999.9
2022-12-15T09:35:22.374Z,999.8
2022-12-15T09:36:25.359Z,999.9
2022-12-15T09:37:28.739Z,999.9
2022-12-15T09:38:32.438Z,999.8
2022-12-15T09:39:36.346Z,999.8
2022-12-15T09:40:39.224Z,999.9
2022-12-15T09:41:42.273Z,999.9
2022-12-15T09:42:54.810Z,999.9
2022-12-15T09:44:51.099Z,999.8
2022-12-15T09:45:55.312Z,999.9
2022-12-15T09:46:58.835Z,1000
2022-12-15T09:48:01.901Z,999.9
2022-12-15T09:49:04.954Z,999.9
2022-12-15T09:50:08.214Z,999.9
2022-12-15T09:51:12.005Z,999.9
2022-12-15T09:52:15.285Z,999.8
2022-12-15T09:53:55.342Z,999.8
2022-12-15T09:55:03.968Z,999.8
2022-12-15T09:56:07.179Z,999.7
2022-12-15T09:57:10.515Z,999.7
2022-12-15T09:58:13.842Z,999.7
2022-12-15T09:59:16.335Z,999.7
2022-12-15T10:00:19.497Z,999.7
2022-12-15T10:01:23.115Z,999.6
2022-12-15T10:02:26.618Z,999.7
2022-12-15T10:03:32.171Z,999.6
2022-12-15T10:04:38.053Z,999.6
2022-12-15T15:04:28.664Z,1000.5
2022-12-15T15:05:31.352Z,1000.5
2022-12-15T15:06:35.135Z,1000.6
2022-12-15T15:07:38.263Z,1000.6
2022-12-15T15:08:41.322Z,1000.6
2022-12-15T15:09:44.015Z,1000.6
2022-12-15T15:10:47.623Z,1000.7
2022-12-15T15:11:51.823Z,1000.6
2022-12-15T15:12:55.277Z,1000.6
2022-12-15T15:13:58.349Z,1000.6
2022-12-15T15:15:01.833Z,1000.6
2022-12-15T15:16:05.143Z,1000.6
2022-12-15T15:17:08.502Z,1000.6
2022-12-15T15:18:12.719Z,1000.7
2022-12-15T15:19:16.052Z,1000.7
2022-12-15T15:20:20.358Z,1000.6
2022-12-15T15:21:23.054Z,1000.7
2022-12-15T15:22:26.320Z,1000.6
2022-12-15T15:23:29.041Z,1000.6
2022-12-15T15:24:33.026Z,1000.7
2022-12-15T15:25:40.976Z,1000.6
2022-12-15T15:26:44.513Z,1000.6
2022-12-15T15:27:47.263Z,1000.6
2022-12-15T15:28:50.523Z,1000.6
2022-12-15T15:29:53.884Z,1000.6
2022-12-15T15:30:57.471Z,1000.7
2022-12-15T15:32:00.551Z,1000.7
2022-12-15T15:33:03.625Z,1000.7
2022-12-15T15:34:06.838Z,1000.7
2022-12-15T15:35:10.532Z,1000.7
2022-12-15T15:36:14.517Z,1000.7
2022-12-15T15:37:18.875Z,1000.7
2022-12-15T15:38:21.641Z,1000.7
2022-12-15T15:39:24.730Z,1000.7
2022-12-15T15:40:27.857Z,1000.7
2022-12-15T15:41:30.554Z,1000.7
2022-12-15T15:42:34.266Z,1000.7
2022-12-15T15:43:37.119Z,1000.7
2022-12-15T15:44:40.283Z,1000.7
2022-12-15T15:45:43.815Z,1000.7
2022-12-15T15:46:46.689Z,1000.7
2022-12-15T15:47:50.944Z,1000.7
2022-12-15T15:48:59.376Z,1000.7
2022-12-15T15:50:03.104Z,1000.7
2022-12-15T15:51:06.200Z,1000.7
2022-12-15T15:52:10.258Z,1000.7
2022-12-15T15:53:13.585Z,1000.7
2022-12-15T15:54:16.984Z,1000.7
2022-12-15T15:55:19.401Z,1000.7
2022-12-15T15:56:22.801Z,1000.7
2022-12-15T15:57:25.786Z,1000.7
2022-12-15T15:58:29.298Z,1000.8
2022-12-15T15:59:35.387Z,1000.7
2022-12-15T16:00:38.808Z,1000.8
2022-12-15T16:01:42.680Z,1000.8
2022-12-15T16:02:46.697Z,1000.8
2022-12-15T16:03:50.637Z,1000.8
2022-12-15T16:04:54.320Z,1000.8
2022-12-15T16:05:57.474Z,1000.8
2022-12-15T16:07:00.807Z,1000.8
2022-12-15T16:08:04.930Z,1000.8
2022-12-15T16:09:08.452Z,1000.8
2022-12-15T16:10:11.440Z,1000.8
2022-12-15T16:11:14.767Z,1000.8
2022-12-15T16:12:18.469Z,1000.8
2022-12-15T16:13:26.738Z,1000.7
2022-12-15T16:14:30.437Z,1000.7
2022-12-15T16:15:33.389Z,1000.7
2022-12-15T16:16:36.593Z,1000.8
2022-12-15T16:17:40.173Z,1000.8
2022-12-15T16:18:43.573Z,1000.7
2022-12-15T16:19:46.552Z,1000.7
2022-12-15T16:20:49.253Z,1000.7
2022-12-15T16:21:51.924Z,1000.7
2022-12-15T16:22:54.891Z,1000.7
2022-12-15T16:23:59.244Z,1000.7
2022-12-15T16:25:02.359Z,1000.7
2022-12-15T16:26:05.346Z,1000.7
2022-12-15T16:27:08.122Z,1000.6
2022-12-15T16:28:11.446Z,1000.7
2022-12-15T16:29:13.938Z,1000.7
2022-12-15T16:30:17.496Z,1000.6
2022-12-15T16:31:21.088Z,1000.7
2022-12-15T16:32:25.180Z,1000.6
2022-12-15T16:33:27.888Z,1000.6
2022-12-15T16:34:31.010Z,1000.6
2022-12-15T16:35:34.334Z,1000.6
2022-12-15T16:36:37.415Z,1000.6
2022-12-15T16:37:40.462Z,1000.7
2022-12-15T16:38:43.159Z,1000.7
2022-12-15T16:39:47.290Z,1000.7
2022-12-15T16:40:50.541Z,1000.7
2022-12-15T16:41:57.439Z,1000.7
2022-12-15T16:43:00.882Z,1000.7
2022-12-15T16:44:03.663Z,1000.7
2022-12-15T16:45:06.792Z,1000.7
2022-12-15T16:46:09.791Z,1000.7
2022-12-15T16:47:12.876Z,1000.7
2022-12-15T16:48:16.211Z,1000.8
2022-12-15T16:49:20.344Z,1000.7
2022-12-15T16:50:23.497Z,1000.8
2022-12-15T16:51:25.787Z,1000.8
2022-12-15T16:52:28.875Z,1000.8
2022-12-15T16:53:32.162Z,1000.8
2022-12-15T16:54:34.955Z,1000.8
2022-12-15T16:55:40.800Z,1000.9
2022-12-15T16:56:43.495Z,1000.8
2022-12-15T16:57:46.842Z,1000.9
2022-12-15T16:59:23.734Z,1000.9
2022-12-15T17:00:38.925Z,1000.9
2022-12-15T17:01:42.355Z,1000.9
2022-12-15T17:02:46.174Z,1000.8
2022-12-15T17:03:50.983Z,1000.8
2022-12-15T17:04:54.663Z,1000.8
2022-12-15T17:05:58.259Z,1000.8
2022-12-15T17:07:01.504Z,1000.8
2022-12-15T17:08:03.996Z,1000.8
2022-12-15T17:09:07.415Z,1000.9
2022-12-15T17:10:10.488Z,1000.9
2022-12-15T17:11:14.587Z,1000.9
2022-12-15T17:12:17.648Z,1000.9
2022-12-15T17:13:20.652Z,1000.9
2022-12-15T17:14:23.152Z,1000.9
2022-12-15T17:15:26.792Z,1000.9
2022-12-15T17:16:30.703Z,1000.9
2022-12-15T17:17:34.438Z,1000.9
2022-12-15T17:18:38.099Z,1001
2022-12-15T17:20:27.780Z,1001
2022-12-15T17:21:35.039Z,1001
2022-12-15T17:22:38.280Z,1001
2022-12-15T17:23:41.707Z,1001
2022-12-15T17:24:44.632Z,1001
2022-12-15T17:26:28.437Z,1001
2022-12-15T17:27:34.376Z,1001.1
2022-12-15T17:28:37.809Z,1001.1
2022-12-15T17:29:41.252Z,1001.2
2022-12-15T17:30:44.351Z,1001.2
2022-12-15T17:31:48.146Z,1001.2
2022-12-15T17:32:51.007Z,1001.2
2022-12-15T17:33:53.708Z,1001.2
2022-12-15T17:34:56.770Z,1001.3
2022-12-15T17:35:59.842Z,1001.3
2022-12-15T17:37:02.330Z,1001.3
2022-12-15T17:38:05.399Z,1001.3
2022-12-15T17:39:10.042Z,1001.3
2022-12-15T17:40:13.438Z,1001.3
2022-12-15T17:41:59.729Z,1001.3
2022-12-15T17:43:06.451Z,1001.3
2022-12-15T17:44:36.050Z,1001.3
2022-12-15T17:45:41.735Z,1001.3
2022-12-15T17:46:45.641Z,1001.4
2022-12-15T17:47:48.657Z,1001.3
2022-12-15T17:48:52.007Z,1001.3
2022-12-15T17:49:55.341Z,1001.3
2022-12-15T17:50:58.746Z,1001.3
2022-12-15T17:52:01.823Z,1001.3
2022-12-15T17:53:05.478Z,1001.3
2022-12-15T17:54:08.003Z,1001.3
2022-12-15T17:55:11.143Z,1001.3
2022-12-15T17:56:13.488Z,1001.4
2022-12-15T17:57:15.908Z,1001.4
2022-12-15T17:58:19.799Z,1001.4
2022-12-15T17:59:22.577Z,1001.4
2022-12-15T18:00:25.645Z,1001.4
2022-12-15T18:01:28.925Z,1001.4
2022-12-15T18:02:32.833Z,1001.4
2022-12-15T18:03:38.112Z,1001.4
2022-12-15T18:04:42.504Z,1001.4
2022-12-15T18:05:45.846Z,1001.5
2022-12-15T18:06:48.540Z,1001.5
2022-12-15T18:07:51.874Z,1001.5
2022-12-15T18:08:55.203Z,1001.5
2022-12-15T18:09:57.702Z,1001.5
2022-12-15T18:11:00.145Z,1001.5
2022-12-15T18:12:03.219Z,1001.6
2022-12-15T18:13:06.182Z,1001.6
2022-12-15T18:14:10.168Z,1001.6
2022-12-15T18:15:12.864Z,1001.6
2022-12-15T18:16:15.511Z,1001.6
2022-12-15T18:17:19.443Z,1001.6
2022-12-15T18:18:22.570Z,1001.7
2022-12-15T18:19:34.755Z,1001.7
2022-12-15T18:20:38.109Z,1001.7
2022-12-15T18:21:41.817Z,1001.7
2022-12-15T18:22:44.908Z,1001.7
2022-12-15T18:23:47.168Z,1001.7
2022-12-15T18:24:50.319Z,1001.8
2022-12-15T18:25:59.709Z,1001.8
2022-12-15T18:27:06.670Z,1001.7
2022-12-15T18:28:09.520Z,1001.8
2022-12-15T18:29:13.344Z,1001.8
2022-12-15T18:30:16.197Z,1001.8
2022-12-15T18:31:19.132Z,1001.8
2022-12-15T18:32:22.557Z,1001.8
2022-12-15T18:33:25.131Z,1001.8
2022-12-15T18:34:28.773Z,1001.8
2022-12-15T18:35:31.281Z,1001.8
2022-12-15T18:36:34.167Z,1001.8
2022-12-15T18:37:37.044Z,1001.8
2022-12-15T18:38:40.472Z,1001.9
2022-12-15T18:39:43.173Z,1001.9
2022-12-15T18:40:46.655Z,1001.9
2022-12-15T18:41:49.518Z,1001.9